Terminal Aerodrome Forecast
Issued by NWS

Current Version | Previous Version | Text Only | Print | Product List | Glossary Off
Versions: 1 2 3 4 5 6 7 8 9 10 11 12 13 14 15 16 17 18 19 20

000
FTUS41 KILN 290109 AAA
TAFLCK
TAF AMD
KLCK 290109Z 2901/2924 VRB04KT P6SM BKN050
      TEMPO 2901/2902 VRB15G23KT 5SM -TSRA BKN050CB
     FM290400 VRB03KT P6SM BKN200
     FM291200 20006KT P6SM VCSH BKN060
     FM291600 20008KT P6SM SCT100 BKN200=

USA.gov is the U.S. government's official web portal to all federal, state and local government web resources and services.